Gladstone, Alberta

Past 24 Hour Conditions

Date / Time
(MDT)
Conditions Temp
(°C)
Humidity
(%)
Dew Point
(°C)
Wind
(km/h)
Pressure
(kPa)
Visibility
(km)
01 April 2015
7:00 N/A 1   89 -1 32 N/A N/A
6:00 N/A 2 86 -1 26 N/A N/A
5:00 N/A 2 72 -2 26 N/A N/A
4:00 N/A 2 73 -2 19 N/A N/A
3:00 N/A 3 76 -1 23 N/A N/A
2:00 N/A 3 78 -1 23 N/A N/A
1:00 N/A 3 79 0 23 N/A N/A
00:00 N/A 3 81 0 23 N/A N/A
31 March 2015
23:00 N/A 4 80 1 31 N/A N/A
22:00 N/A 5 85 3 25 N/A N/A
21:00 N/A 5 86 3 32 N/A N/A
20:00 N/A 7 84 4 36 N/A N/A
19:00 N/A 9 70 4 55 N/A N/A
18:00 N/A 16 40 3 13 N/A N/A
17:00 N/A 18   26 -2 5 N/A N/A
16:00 N/A 18   32 1 14 N/A N/A
15:00 N/A 17 36 2 11 N/A N/A
14:00 N/A 16 40 2 13 N/A N/A
13:00 N/A 14 51 4 17 N/A N/A
12:00 N/A 11 61 4 11 N/A N/A
11:00 N/A 9 63 2 11 N/A N/A
10:00 N/A 4 75 0 12 N/A N/A
9:00 N/A 3 76 -1 16 N/A N/A
8:00 N/A 2 78 -2 16 N/A N/A
7:00 N/A 1   79 -2 14 N/A N/A
N/A Not available
↑ Highest temperature
↓ Lowest temperature

If you require additional historical weather information, please visit Climate Data Online.

What we are doing

Date modified: